createdAt,value
2022-12-13T00:01:53.091Z,4.13
2022-12-13T00:04:22.878Z,3.23
2022-12-13T00:06:53.933Z,3.47
2022-12-13T00:09:22.992Z,3.30
2022-12-13T00:11:52.243Z,3.37
2022-12-13T00:14:20.865Z,3.43
2022-12-13T00:16:51.506Z,3.90
2022-12-13T00:19:20.508Z,3.13
2022-12-13T00:21:49.122Z,3.90
2022-12-13T00:24:17.985Z,3.67
2022-12-13T00:26:46.354Z,3.00
2022-12-13T00:29:14.941Z,3.40
2022-12-13T00:34:33.289Z,3.27
2022-12-13T00:37:01.651Z,2.97
2022-12-13T00:39:30.388Z,3.67
2022-12-13T00:41:59.131Z,3.27
2022-12-13T00:44:27.881Z,3.30
2022-12-13T00:46:56.637Z,3.90
2022-12-13T00:49:25.366Z,3.33
2022-12-13T00:51:55.364Z,3.83
2022-12-13T00:54:23.724Z,3.27
2022-12-13T00:56:52.582Z,3.00
2022-12-13T00:59:20.985Z,3.80
2022-12-13T01:01:49.800Z,3.50
2022-12-13T01:04:18.168Z,3.50
2022-12-13T01:06:49.942Z,3.93
2022-12-13T01:09:27.133Z,4.73
2022-12-13T01:11:58.927Z,3.20
2022-12-13T01:14:27.610Z,4.57
2022-12-13T01:16:56.577Z,3.77
2022-12-13T01:19:26.217Z,4.37
2022-12-13T01:21:55.991Z,4.87
2022-12-13T01:24:26.125Z,5.20
2022-12-13T01:26:57.194Z,4.23
2022-12-13T01:29:27.711Z,4.10
2022-12-13T01:31:56.308Z,4.53
2022-12-13T01:34:27.534Z,4.57
2022-12-13T01:36:58.515Z,4.63
2022-12-13T01:39:29.089Z,4.37
2022-12-13T01:42:00.065Z,3.80
2022-12-13T01:45:08.293Z,3.87
2022-12-13T01:47:41.775Z,3.73
2022-12-13T01:50:13.644Z,4.33
2022-12-13T01:52:43.761Z,4.17
2022-12-13T01:55:16.151Z,4.30
2022-12-13T01:57:48.392Z,3.97
2022-12-13T02:00:17.932Z,4.50
2022-12-13T02:02:47.951Z,5.00
2022-12-13T02:05:22.677Z,4.73
2022-12-13T02:07:52.211Z,4.50
2022-12-13T02:10:22.130Z,4.53
2022-12-13T02:12:51.306Z,5.13
2022-12-13T02:15:21.055Z,4.17
2022-12-13T02:18:04.589Z,4.33
2022-12-13T02:20:51.197Z,4.37
2022-12-13T02:23:52.466Z,4.83
2022-12-13T02:26:53.960Z,4.27
2022-12-13T02:29:54.848Z,4.90
2022-12-13T02:32:33.973Z,5.20
2022-12-13T02:35:10.136Z,4.20
2022-12-13T02:37:51.669Z,4.30
2022-12-13T02:40:24.947Z,4.27
2022-12-13T02:43:00.050Z,4.40
2022-12-13T02:45:32.365Z,3.47
2022-12-13T02:48:04.945Z,4.17
2022-12-13T02:50:34.659Z,3.63
2022-12-13T02:53:03.680Z,3.27
2022-12-13T02:55:35.842Z,3.97
2022-12-13T02:58:04.197Z,4.23
2022-12-13T03:00:41.321Z,3.33
2022-12-13T03:03:22.693Z,3.97
2022-12-13T03:06:16.225Z,3.87
2022-12-13T03:08:55.067Z,3.67
2022-12-13T03:11:26.858Z,4.43
2022-12-13T03:13:57.164Z,4.90
2022-12-13T03:16:33.870Z,5.00
2022-12-13T03:19:07.138Z,4.67
2022-12-13T03:21:45.513Z,4.83
2022-12-13T03:24:17.817Z,6.07
2022-12-13T03:26:48.375Z,5.63
2022-12-13T03:29:23.941Z,5.80
2022-12-13T03:31:53.935Z,6.30
2022-12-13T03:34:23.945Z,5.27
2022-12-13T03:36:52.956Z,6.57
2022-12-13T03:39:21.525Z,5.90
2022-12-13T03:41:50.899Z,5.90
2022-12-13T03:44:19.226Z,6.20
2022-12-13T03:46:47.859Z,6.00
2022-12-13T03:49:17.576Z,6.60
2022-12-13T03:51:47.940Z,5.80
2022-12-13T03:54:16.567Z,6.60
2022-12-13T03:56:45.106Z,5.87
2022-12-13T03:59:13.367Z,6.23
2022-12-13T04:01:42.138Z,5.37
2022-12-13T04:04:10.446Z,5.97
2022-12-13T04:06:39.133Z,6.30
2022-12-13T04:09:08.761Z,5.33
2022-12-13T04:11:55.140Z,6.13
2022-12-13T04:14:23.441Z,6.60
2022-12-13T04:16:52.827Z,6.23
2022-12-13T04:19:22.907Z,6.27
2022-12-13T04:21:54.490Z,5.73
2022-12-13T04:24:31.372Z,5.07
2022-12-13T04:27:01.537Z,5.20
2022-12-13T04:29:34.461Z,5.57
2022-12-13T04:32:04.417Z,6.27
2022-12-13T04:34:37.192Z,5.83
2022-12-13T04:37:06.917Z,5.37
2022-12-13T04:39:36.702Z,5.87
2022-12-13T04:42:06.033Z,5.60
2022-12-13T04:44:37.021Z,5.57
2022-12-13T04:47:06.152Z,5.23
2022-12-13T04:49:35.410Z,5.27
2022-12-13T04:52:04.278Z,5.10
2022-12-13T04:54:36.674Z,5.13
2022-12-13T04:57:11.291Z,4.57
2022-12-13T04:59:40.124Z,5.40
2022-12-13T05:02:09.960Z,4.97
2022-12-13T05:04:38.380Z,5.03
2022-12-13T05:07:07.012Z,4.93
2022-12-13T05:09:35.295Z,5.60
2022-12-13T05:12:03.856Z,5.57
2022-12-13T05:14:42.502Z,5.23
2022-12-13T05:17:11.111Z,4.67
2022-12-13T05:19:39.421Z,4.83
2022-12-13T05:22:19.672Z,4.80
2022-12-13T05:24:49.991Z,4.77
2022-12-13T05:27:24.443Z,4.80
2022-12-13T05:30:03.834Z,5.00
2022-12-13T05:32:43.142Z,5.37
2022-12-13T05:35:14.207Z,4.43
2022-12-13T05:37:53.414Z,4.23
2022-12-13T05:40:22.903Z,4.07
2022-12-13T05:42:51.444Z,4.87
2022-12-13T05:45:21.552Z,4.60
2022-12-13T05:47:50.259Z,4.50
2022-12-13T05:50:19.002Z,4.10
2022-12-13T05:52:47.774Z,4.77
2022-12-13T05:55:16.378Z,4.43
2022-12-13T05:57:50.575Z,4.77
2022-12-13T06:00:28.696Z,4.73
2022-12-13T06:03:00.447Z,5.00
2022-12-13T06:05:29.857Z,4.10
2022-12-13T06:07:59.040Z,3.83
2022-12-13T06:10:34.655Z,4.43
2022-12-13T06:13:21.807Z,5.13
2022-12-13T06:16:01.008Z,4.93
2022-12-13T06:18:32.641Z,5.13
2022-12-13T06:21:02.823Z,5.00
2022-12-13T06:23:32.891Z,4.20
2022-12-13T06:26:04.469Z,5.00
2022-12-13T06:28:33.410Z,5.13
2022-12-13T06:31:03.597Z,4.77
2022-12-13T06:33:35.557Z,4.77
2022-12-13T06:36:04.979Z,5.43
2022-12-13T06:38:34.279Z,5.70
2022-12-13T06:41:13.110Z,4.73
2022-12-13T06:43:43.980Z,4.77
2022-12-13T06:46:14.669Z,4.77
2022-12-13T06:48:43.420Z,5.57
2022-12-13T06:51:12.101Z,5.57
2022-12-13T06:53:42.075Z,5.53
2022-12-13T06:56:12.681Z,5.47
2022-12-13T06:58:42.064Z,5.30
2022-12-13T07:01:24.165Z,6.30
2022-12-13T07:03:57.793Z,5.43
2022-12-13T07:06:27.351Z,5.63
2022-12-13T07:08:58.331Z,5.83
2022-12-13T07:11:29.668Z,6.03
2022-12-13T07:13:58.745Z,5.40
2022-12-13T07:16:29.634Z,6.80
2022-12-13T07:19:01.078Z,5.60
2022-12-13T07:21:31.166Z,5.83
2022-12-13T07:24:01.265Z,6.20
2022-12-13T07:26:29.596Z,5.57
2022-12-13T07:28:58.402Z,5.50
2022-12-13T07:31:28.418Z,5.13
2022-12-13T07:33:57.059Z,6.47
2022-12-13T07:36:25.709Z,6.27
2022-12-13T07:38:55.818Z,5.57
2022-12-13T07:41:25.083Z,6.07
2022-12-13T07:43:55.349Z,5.77
2022-12-13T07:46:33.520Z,5.90
2022-12-13T07:49:04.357Z,6.13
2022-12-13T07:51:34.966Z,6.47
2022-12-13T07:54:06.824Z,7.23
2022-12-13T07:56:35.634Z,5.57
2022-12-13T07:59:04.690Z,5.73
2022-12-13T08:01:34.541Z,6.13
2022-12-13T08:04:05.682Z,5.83
2022-12-13T08:06:37.184Z,7.17
2022-12-13T08:09:06.991Z,6.13
2022-12-13T08:11:35.703Z,5.87
2022-12-13T08:14:04.559Z,6.17
2022-12-13T08:16:33.165Z,5.90
2022-12-13T08:19:04.599Z,6.60
2022-12-13T08:21:56.164Z,7.00
2022-12-13T08:24:26.500Z,7.60
2022-12-13T08:26:55.030Z,7.13
2022-12-13T08:29:34.244Z,7.07
2022-12-13T08:32:05.146Z,6.33
2022-12-13T08:34:33.931Z,7.33
2022-12-13T08:37:05.104Z,7.57
2022-12-13T08:39:36.269Z,7.20
2022-12-13T08:42:17.020Z,5.87
2022-12-13T08:44:51.676Z,4.63
2022-12-13T08:47:23.165Z,5.87
2022-12-13T08:50:02.197Z,5.73
2022-12-13T08:52:39.227Z,5.33
2022-12-13T08:55:10.146Z,5.90
2022-12-13T08:57:38.543Z,4.93
2022-12-13T09:00:09.029Z,5.50
2022-12-13T09:02:38.383Z,5.50
2022-12-13T09:05:08.713Z,5.10
2022-12-13T09:07:39.624Z,5.30
2022-12-13T09:10:38.130Z,4.00
2022-12-13T09:13:01.639Z,5.03
2022-12-13T09:15:34.491Z,5.17
2022-12-13T09:18:05.227Z,5.53
2022-12-13T09:20:40.503Z,5.67
2022-12-13T09:23:14.179Z,4.63
2022-12-13T09:26:05.210Z,4.53
2022-12-13T09:28:35.286Z,4.13
2022-12-13T09:31:08.596Z,4.77
2022-12-13T09:33:41.314Z,4.57
2022-12-13T09:36:14.378Z,4.73
2022-12-13T09:38:44.247Z,4.03
2022-12-13T09:41:20.406Z,4.63
2022-12-13T09:44:01.343Z,4.63
2022-12-13T09:46:34.424Z,4.83
2022-12-13T09:49:22.947Z,3.83
2022-12-13T09:52:11.213Z,4.50
2022-12-13T09:54:48.829Z,4.60
2022-12-13T09:57:32.778Z,4.60
2022-12-13T10:00:03.543Z,4.87
2022-12-13T10:02:34.918Z,4.60
2022-12-13T10:05:22.594Z,4.43
2022-12-13T10:07:56.844Z,5.03
2022-12-13T10:10:27.188Z,4.47
2022-12-13T10:13:04.745Z,3.83
2022-12-13T10:15:37.408Z,3.63
2022-12-13T10:18:07.925Z,4.27
2022-12-13T10:20:36.351Z,3.97
2022-12-13T10:26:03.012Z,4.20
2022-12-13T10:28:34.377Z,4.87
2022-12-13T10:31:03.258Z,4.83
2022-12-13T10:33:34.789Z,4.57
2022-12-13T10:36:09.078Z,4.37
2022-12-13T10:38:39.608Z,4.60
2022-12-13T10:41:30.663Z,4.87
2022-12-13T10:44:25.341Z,4.30
2022-12-13T10:47:03.054Z,4.10
2022-12-13T10:49:40.947Z,3.93
2022-12-13T10:52:31.491Z,4.63
2022-12-13T10:55:23.550Z,4.10
2022-12-13T10:57:55.469Z,5.13
2022-12-13T11:00:40.835Z,4.77
2022-12-13T11:03:13.642Z,5.87
2022-12-13T11:05:42.378Z,5.43
2022-12-13T11:08:22.608Z,5.33
2022-12-13T11:10:59.528Z,5.93
2022-12-13T11:13:36.982Z,5.03
2022-12-13T11:16:17.843Z,4.60
2022-12-13T11:18:52.428Z,4.27
2022-12-13T11:21:26.431Z,5.10
2022-12-13T11:23:57.475Z,4.97
2022-12-13T11:26:33.778Z,4.77
2022-12-13T11:29:34.516Z,5.27
2022-12-13T11:32:12.168Z,4.17
2022-12-13T11:34:47.929Z,4.40
2022-12-13T11:37:26.640Z,4.63
2022-12-13T11:40:01.533Z,4.43
2022-12-13T11:42:34.597Z,4.30
2022-12-13T11:45:13.675Z,4.63
2022-12-13T11:48:01.740Z,4.83
2022-12-13T11:50:35.544Z,3.47
2022-12-13T11:53:24.125Z,4.50
2022-12-13T11:55:57.498Z,4.13
2022-12-13T11:59:02.331Z,4.23
2022-12-13T12:01:27.634Z,3.40
2022-12-13T12:04:02.331Z,3.73
2022-12-13T12:06:38.390Z,4.03
2022-12-13T12:09:10.666Z,4.13
2022-12-13T12:11:46.724Z,4.03
2022-12-13T12:14:20.697Z,4.63
2022-12-13T12:16:53.758Z,4.13
2022-12-13T12:19:24.941Z,4.47
2022-12-13T12:22:14.307Z,3.77
2022-12-13T12:25:00.247Z,3.80
2022-12-13T12:27:38.382Z,4.60
2022-12-13T12:30:22.671Z,4.17
2022-12-13T12:32:57.918Z,3.70
2022-12-13T12:35:46.422Z,4.03
2022-12-13T12:38:35.977Z,3.70
2022-12-13T12:41:25.668Z,4.40
2022-12-13T12:44:01.933Z,4.23
2022-12-13T12:50:06.860Z,4.13
2022-12-13T12:52:50.408Z,4.70
2022-12-13T12:55:38.230Z,4.67
2022-12-13T12:58:16.649Z,3.60
2022-12-13T13:00:54.648Z,4.67
2022-12-13T13:03:25.204Z,3.90
2022-12-13T13:06:02.663Z,4.00
2022-12-13T13:08:40.966Z,4.30
2022-12-13T13:11:24.542Z,4.40
2022-12-13T13:14:07.101Z,4.23
2022-12-13T13:16:38.502Z,4.63
2022-12-13T13:19:27.561Z,3.77
2022-12-13T13:22:01.400Z,3.70
2022-12-13T13:24:32.935Z,3.90
2022-12-13T13:27:29.271Z,4.37
2022-12-13T13:30:07.921Z,4.13
2022-12-13T13:32:40.759Z,5.17
2022-12-13T13:35:48.109Z,3.80
2022-12-13T13:38:53.428Z,4.27
2022-12-13T13:41:42.382Z,3.93
2022-12-13T13:44:54.526Z,4.00
2022-12-13T13:47:45.444Z,3.47
2022-12-13T13:50:53.988Z,4.50
2022-12-13T13:54:00.553Z,3.77
2022-12-13T13:57:01.200Z,4.50
2022-12-13T14:00:02.215Z,3.77
2022-12-13T14:03:33.196Z,3.77
2022-12-13T14:06:24.565Z,4.40
2022-12-13T14:09:23.001Z,4.43
2022-12-13T14:12:26.663Z,3.73
2022-12-13T14:15:40.405Z,4.47
2022-12-13T14:18:51.578Z,3.40
2022-12-13T14:21:27.741Z,4.43
2022-12-13T14:24:09.421Z,3.57
2022-12-13T14:26:51.579Z,4.33
2022-12-13T14:29:27.645Z,4.33
2022-12-13T14:31:56.655Z,4.47
2022-12-13T14:34:27.672Z,4.50
2022-12-13T14:36:57.872Z,3.90
2022-12-13T14:39:29.620Z,3.87
2022-12-13T14:42:00.375Z,3.90
2022-12-13T14:44:31.207Z,3.33
2022-12-13T14:47:02.509Z,4.27
2022-12-13T14:49:33.738Z,4.00
2022-12-13T14:52:07.158Z,3.57
2022-12-13T14:54:46.472Z,4.23
2022-12-13T14:57:18.290Z,3.23
2022-12-13T14:59:50.437Z,3.87
2022-12-13T15:02:30.742Z,3.43
2022-12-13T15:05:02.728Z,3.80
2022-12-13T15:07:35.753Z,3.77
2022-12-13T15:10:19.343Z,4.17
2022-12-13T15:12:49.177Z,4.53
2022-12-13T15:15:24.614Z,4.33
2022-12-13T15:18:08.095Z,4.67
2022-12-13T15:20:41.151Z,4.77
2022-12-13T15:23:16.136Z,3.97
2022-12-13T15:25:48.067Z,4.10
2022-12-13T15:28:21.644Z,4.80
2022-12-13T15:30:51.569Z,4.40
2022-12-13T15:33:26.358Z,4.93
2022-12-13T15:36:09.591Z,3.87
2022-12-13T15:38:41.267Z,4.83
2022-12-13T15:41:18.940Z,4.63
2022-12-13T15:43:50.134Z,5.43
2022-12-13T15:46:26.134Z,4.37
2022-12-13T15:48:56.398Z,4.53
2022-12-13T15:51:29.059Z,4.40
2022-12-13T15:54:08.344Z,5.03
2022-12-13T15:56:43.987Z,4.53
2022-12-13T15:59:27.360Z,4.77
2022-12-13T16:01:58.628Z,4.47
2022-12-13T16:04:29.759Z,6.03
2022-12-13T16:06:59.010Z,6.10
2022-12-13T16:09:30.936Z,5.83
2022-12-13T16:12:03.099Z,4.90
2022-12-13T16:14:48.934Z,4.77
2022-12-13T16:17:25.560Z,5.50
2022-12-13T16:19:57.325Z,5.47
2022-12-13T16:22:26.010Z,5.30
2022-12-13T16:24:56.414Z,5.20
2022-12-13T16:27:26.451Z,6.10
2022-12-13T16:29:54.829Z,5.20
2022-12-13T16:32:23.823Z,5.13
2022-12-13T16:34:52.411Z,5.97
2022-12-13T16:37:27.478Z,6.33
2022-12-13T16:39:56.428Z,6.27
2022-12-13T16:42:27.434Z,6.90
2022-12-13T16:45:40.756Z,5.50
2022-12-13T16:47:49.276Z,6.73
2022-12-13T16:50:19.803Z,6.37
2022-12-13T16:52:48.686Z,6.47
2022-12-13T16:55:17.507Z,7.10
2022-12-13T16:57:57.441Z,7.30
2022-12-13T17:00:26.838Z,6.27
2022-12-13T17:02:55.564Z,5.63
2022-12-13T17:05:26.879Z,5.73
2022-12-13T17:07:56.623Z,6.30
2022-12-13T17:10:25.361Z,5.63
2022-12-13T17:12:55.571Z,6.93
2022-12-13T17:15:23.913Z,6.43
2022-12-13T17:17:52.597Z,6.07
2022-12-13T17:20:21.137Z,5.43
2022-12-13T17:22:49.665Z,6.10
2022-12-13T17:25:18.378Z,6.43
2022-12-13T17:27:47.123Z,6.43
2022-12-13T17:30:18.906Z,7.40
2022-12-13T17:32:47.749Z,7.27
2022-12-13T17:35:18.563Z,6.97
2022-12-13T17:37:47.996Z,7.87
2022-12-13T17:40:18.246Z,6.67
2022-12-13T17:42:50.641Z,6.97
2022-12-13T17:45:21.609Z,7.30
2022-12-13T17:47:50.819Z,7.80
2022-12-13T17:50:19.190Z,7.60
2022-12-13T17:52:47.721Z,6.40
2022-12-13T17:55:18.491Z,5.50
2022-12-13T17:57:47.573Z,6.00
2022-12-13T18:00:17.132Z,6.37
2022-12-13T18:02:55.308Z,5.67
2022-12-13T18:05:29.123Z,6.30
2022-12-13T18:07:57.863Z,6.07
2022-12-13T18:10:29.746Z,5.37
2022-12-13T18:12:58.924Z,5.57
2022-12-13T18:15:27.426Z,5.07
2022-12-13T18:18:11.178Z,5.33
2022-12-13T18:20:40.216Z,5.47
2022-12-13T18:23:08.909Z,5.73
2022-12-13T18:25:37.475Z,5.90
2022-12-13T18:28:06.822Z,5.70
2022-12-13T18:30:35.121Z,5.70
2022-12-13T18:33:05.865Z,5.60
2022-12-13T18:35:35.094Z,5.70
2022-12-13T18:38:03.724Z,5.27
2022-12-13T18:40:33.257Z,5.50
2022-12-13T18:43:02.003Z,5.70
2022-12-13T18:45:30.299Z,5.17
2022-12-13T18:47:58.883Z,5.33
2022-12-13T18:50:28.550Z,6.10
2022-12-13T18:52:57.169Z,5.33
2022-12-13T18:55:25.406Z,6.03
2022-12-13T18:57:54.108Z,5.43
2022-12-13T19:00:24.191Z,5.30
2022-12-13T19:02:52.837Z,6.73
2022-12-13T19:05:22.836Z,6.03
2022-12-13T19:07:52.872Z,6.53
2022-12-13T19:10:21.212Z,8.07
2022-12-13T19:12:49.870Z,7.97
2022-12-13T19:15:19.047Z,8.90
2022-12-13T19:17:48.116Z,8.40
2022-12-13T19:20:17.317Z,11.33
2022-12-13T19:22:46.854Z,12.47
2022-12-13T19:25:17.052Z,12.40
2022-12-13T19:27:47.420Z,10.87
2022-12-13T19:30:17.754Z,11.33
2022-12-13T19:32:48.190Z,10.73
2022-12-13T19:35:16.987Z,11.57
2022-12-13T19:37:45.564Z,9.83
2022-12-13T19:40:13.989Z,10.57
2022-12-13T19:42:43.950Z,10.63
2022-12-13T19:45:12.259Z,10.03
2022-12-13T19:47:40.934Z,9.87
2022-12-13T19:50:11.089Z,9.10
2022-12-13T19:52:39.765Z,10.13
2022-12-13T19:55:08.467Z,9.33
2022-12-13T19:57:37.032Z,9.03
2022-12-13T20:00:08.155Z,9.57
2022-12-13T20:02:36.798Z,7.70
2022-12-13T20:05:06.329Z,9.63
2022-12-13T20:07:34.989Z,9.23
2022-12-13T20:10:03.257Z,9.80
2022-12-13T20:12:37.088Z,8.43
2022-12-13T20:15:11.256Z,8.67
2022-12-13T20:17:39.901Z,9.67
2022-12-13T20:20:08.716Z,10.00
2022-12-13T20:22:37.325Z,9.87
2022-12-13T20:25:07.071Z,9.27
2022-12-13T20:27:35.622Z,9.07
2022-12-13T20:30:04.948Z,8.80
2022-12-13T20:32:35.130Z,10.57
2022-12-13T20:35:03.370Z,10.03
2022-12-13T20:37:32.316Z,9.80
2022-12-13T20:40:00.873Z,8.87
2022-12-13T20:42:30.463Z,13.80
2022-12-13T20:44:59.964Z,16.07
2022-12-13T20:47:28.568Z,16.10
2022-12-13T20:49:58.269Z,14.80
2022-12-13T20:52:27.031Z,12.50
2022-12-13T20:54:55.565Z,12.37
2022-12-13T20:57:24.128Z,9.90
2022-12-13T20:59:52.426Z,10.23
2022-12-13T21:02:21.020Z,10.30
2022-12-13T21:04:49.533Z,8.97
2022-12-13T21:07:39.417Z,9.50
2022-12-13T21:10:08.578Z,10.30
2022-12-13T21:12:37.155Z,9.47
2022-12-13T21:15:05.991Z,8.90
2022-12-13T21:17:34.537Z,8.63
2022-12-13T21:20:02.871Z,8.57
2022-12-13T21:22:32.800Z,9.70
2022-12-13T21:25:01.564Z,10.07
2022-12-13T21:27:30.190Z,8.73
2022-12-13T21:29:58.371Z,9.77
2022-12-13T21:32:27.062Z,10.57
2022-12-13T21:34:55.356Z,8.63
2022-12-13T21:37:23.904Z,9.03
2022-12-13T21:39:53.610Z,8.90
2022-12-13T21:42:22.237Z,9.73
2022-12-13T21:44:50.748Z,8.23
2022-12-13T21:47:21.460Z,9.03
2022-12-13T21:49:49.748Z,8.33
2022-12-13T21:52:18.646Z,9.73
2022-12-13T21:54:46.958Z,8.30
2022-12-13T21:57:34.461Z,8.93
2022-12-13T22:00:02.711Z,7.23
2022-12-13T22:02:32.892Z,8.17
2022-12-13T22:05:01.234Z,8.80
2022-12-13T22:07:31.476Z,8.20
2022-12-13T22:10:01.299Z,8.30
2022-12-13T22:12:34.933Z,9.70
2022-12-13T22:15:05.018Z,8.63
2022-12-13T22:17:36.119Z,8.10
2022-12-13T22:20:06.549Z,8.37
2022-12-13T22:22:35.559Z,8.50
2022-12-13T22:25:03.964Z,8.30
2022-12-13T22:27:33.868Z,9.20
2022-12-13T22:30:02.103Z,8.67
2022-12-13T22:32:33.909Z,9.53
2022-12-13T22:35:02.326Z,9.57
2022-12-13T22:37:30.897Z,9.13
2022-12-13T22:39:59.192Z,8.83
2022-12-13T22:42:27.790Z,8.93
2022-12-13T22:44:57.490Z,9.70
2022-12-13T22:47:26.284Z,10.23
2022-12-13T22:49:54.522Z,10.13
2022-12-13T22:52:23.136Z,10.93
2022-12-13T22:54:51.558Z,9.50
2022-12-13T22:57:20.066Z,9.93
2022-12-13T22:59:48.307Z,10.47
2022-12-13T23:02:18.484Z,10.63
2022-12-13T23:04:47.078Z,10.17
2022-12-13T23:07:15.680Z,10.37
2022-12-13T23:09:44.149Z,10.13
2022-12-13T23:12:30.683Z,11.20
2022-12-13T23:14:59.063Z,9.47
2022-12-13T23:17:29.046Z,9.50
2022-12-13T23:19:57.503Z,9.77
2022-12-13T23:22:27.031Z,10.97
2022-12-13T23:24:55.633Z,10.07
2022-12-13T23:27:25.320Z,9.70
2022-12-13T23:29:53.646Z,8.60
2022-12-13T23:32:22.185Z,10.27
2022-12-13T23:34:52.351Z,10.23
2022-12-13T23:37:20.901Z,8.90
2022-12-13T23:39:49.207Z,10.80
2022-12-13T23:42:17.898Z,8.57
2022-12-13T23:44:46.238Z,8.93
2022-12-13T23:47:14.780Z,8.73
2022-12-13T23:49:43.390Z,8.13
2022-12-13T23:52:13.456Z,9.03
2022-12-13T23:54:41.727Z,7.63
2022-12-13T23:57:10.278Z,7.23
2022-12-13T23:59:38.747Z,8.03
